Time;durP1;ratioP1;P1;durP2;ratioP2;P2;SDS_P1;SDS_P2;PMS_P1;PMS_P2;Temp;Humidity;BMP_temperature;BMP_pressure;BME280_temperature;BME280_humidity;BME280_pressure;Samples;Min_cycle;Max_cycle;Signal;HPM_P1;HPM_P2
2022/08/09 00:00:47;;;;;;;;;;;17.00;99.90;;;;;;5073725;28;20023;-73
2022/08/09 00:03:13;;;;;;;;;;;16.90;99.90;;;;;;5070295;28;19920;-73
2022/08/09 00:05:38;;;;;;;;;;;16.80;99.90;;;;;;5070757;28;19946;-73
2022/08/09 00:08:05;;;;;;;;;;;16.80;99.90;;;;;;5071857;28;19916;-73
2022/08/09 00:10:31;;;;;;;;;;;16.80;99.90;;;;;;5070064;28;20305;-73
2022/08/09 00:12:56;;;;;;;;;;;16.70;99.90;;;;;;5070021;28;19958;-72
2022/08/09 00:15:22;;;;;;;;;;;16.70;99.90;;;;;;5071750;28;20202;-73
2022/08/09 00:17:47;;;;;;;;;;;16.70;99.90;;;;;;5072148;28;20295;-73
2022/08/09 00:20:13;;;;;;;;;;;16.60;99.90;;;;;;5067025;28;19943;-73
2022/08/09 00:22:38;;;;;;;;;;;16.70;99.90;;;;;;5071315;28;19916;-73
2022/08/09 00:25:04;;;;;;;;;;;16.70;99.90;;;;;;5068293;28;19916;-73
2022/08/09 00:27:30;;;;;;;;;;;16.60;99.90;;;;;;5066040;28;19927;-73
2022/08/09 00:29:55;;;;;;;;;;;16.60;99.90;;;;;;5072045;28;19924;-72
2022/08/09 00:32:21;;;;;;;;;;;16.50;99.90;;;;;;5072612;28;20250;-73
2022/08/09 00:34:47;;;;;;;;;;;16.50;99.90;;;;;;5105202;28;19912;-73
2022/08/09 00:37:13;;;;;;;;;;;16.50;99.90;;;;;;5071529;28;20238;-73
2022/08/09 00:39:39;;;;;;;;;;;16.50;99.90;;;;;;5068183;28;19912;-74
2022/08/09 00:42:05;;;;;;;;;;;16.50;99.90;;;;;;5068983;28;19924;-74
2022/08/09 00:44:30;;;;;;;;;;;16.50;99.90;;;;;;5065374;28;19917;-73
2022/08/09 00:46:56;;;;;;;;;;;16.50;99.90;;;;;;5067734;28;20025;-72
2022/08/09 00:49:22;;;;;;;;;;;16.40;99.90;;;;;;5070014;28;19919;-73
2022/08/09 00:51:48;;;;;;;;;;;16.40;99.90;;;;;;5071411;28;19912;-73
2022/08/09 00:54:14;;;;;;;;;;;16.30;99.90;;;;;;5072119;28;20064;-71
2022/08/09 00:56:40;;;;;;;;;;;16.30;99.90;;;;;;5102552;28;19924;-71
2022/08/09 00:59:06;;;;;;;;;;;16.30;99.90;;;;;;5097397;28;19916;-72
2022/08/09 01:01:34;;;;;;;;;;;16.30;99.90;;;;;;5070672;28;19986;-72
2022/08/09 01:04:26;;;;;;;;;;;16.30;99.90;;;;;;5070995;28;19916;-72
2022/08/09 01:07:01;;;;;;;;;;;16.30;99.90;;;;;;5070420;28;19912;-74
2022/08/09 01:09:36;;;;;;;;;;;16.20;99.90;;;;;;5072619;28;19916;-72
2022/08/09 01:12:05;;;;;;;;;;;16.20;99.90;;;;;;5099409;28;19927;-72
2022/08/09 01:14:36;;;;;;;;;;;16.20;99.90;;;;;;5071205;28;20332;-73
2022/08/09 01:17:05;;;;;;;;;;;16.20;99.90;;;;;;5071019;28;19930;-72
2022/08/09 01:19:48;;;;;;;;;;;16.20;99.90;;;;;;5066213;28;19923;-72
2022/08/09 01:22:32;;;;;;;;;;;16.30;99.90;;;;;;5071006;28;20009;-73
2022/08/09 01:25:15;;;;;;;;;;;16.20;99.90;;;;;;5061695;28;20304;-72
2022/08/09 01:27:41;;;;;;;;;;;16.10;99.90;;;;;;5068230;28;20368;-73
2022/08/09 01:30:08;;;;;;;;;;;16.00;99.90;;;;;;5071691;28;19916;-72
2022/08/09 01:32:37;;;;;;;;;;;16.10;99.90;;;;;;5075587;28;20007;-74
2022/08/09 01:35:13;;;;;;;;;;;16.20;99.90;;;;;;5071836;28;20296;-72
2022/08/09 01:37:38;;;;;;;;;;;16.20;99.90;;;;;;5071010;28;21729;-72
2022/08/09 01:40:06;;;;;;;;;;;16.20;99.90;;;;;;5075007;28;19999;-72
2022/08/09 01:42:32;;;;;;;;;;;16.20;99.90;;;;;;5074557;28;19916;-73
2022/08/09 01:44:58;;;;;;;;;;;16.20;99.90;;;;;;5075058;28;19918;-72
2022/08/09 01:47:25;;;;;;;;;;;16.20;99.90;;;;;;5074514;28;19916;-72
2022/08/09 01:49:51;;;;;;;;;;;16.10;99.90;;;;;;5075762;28;19971;-72
2022/08/09 01:52:18;;;;;;;;;;;16.10;99.90;;;;;;5072640;28;19974;-73
2022/08/09 01:54:45;;;;;;;;;;;16.00;99.90;;;;;;5073023;28;19912;-75
2022/08/09 01:57:13;;;;;;;;;;;15.90;99.90;;;;;;5073620;28;20331;-72
2022/08/09 01:59:40;;;;;;;;;;;15.80;99.90;;;;;;5070930;28;20034;-73
2022/08/09 02:02:06;;;;;;;;;;;15.90;99.90;;;;;;5075908;28;19916;-72
2022/08/09 02:04:32;;;;;;;;;;;16.00;99.90;;;;;;5090162;28;19924;-72
2022/08/09 02:07:15;;;;;;;;;;;16.00;99.90;;;;;;5066490;28;20069;-73
2022/08/09 02:09:47;;;;;;;;;;;16.00;99.90;;;;;;5065550;28;19974;-74
2022/08/09 02:12:13;;;;;;;;;;;16.00;99.90;;;;;;5070991;28;19957;-73
2022/08/09 02:14:40;;;;;;;;;;;16.00;99.90;;;;;;5069989;28;19913;-72
2022/08/09 02:17:06;;;;;;;;;;;15.90;99.90;;;;;;5073023;28;20342;-72
2022/08/09 02:19:31;;;;;;;;;;;15.90;99.90;;;;;;5070486;28;19912;-72
2022/08/09 02:21:59;;;;;;;;;;;15.80;99.90;;;;;;5068929;28;19919;-72
2022/08/09 02:24:28;;;;;;;;;;;15.70;99.90;;;;;;5069629;28;19921;-73
2022/08/09 02:26:56;;;;;;;;;;;15.60;99.90;;;;;;5071816;28;19913;-72
2022/08/09 02:29:23;;;;;;;;;;;15.60;99.90;;;;;;5071704;28;19961;-71
2022/08/09 02:31:49;;;;;;;;;;;15.60;99.90;;;;;;5073928;28;20299;-72
2022/08/09 02:34:17;;;;;;;;;;;15.50;99.90;;;;;;5063330;28;19939;-72
2022/08/09 02:36:45;;;;;;;;;;;15.40;99.90;;;;;;5069570;28;19924;-73
2022/08/09 02:39:14;;;;;;;;;;;15.40;99.90;;;;;;5073302;28;20030;-76
2022/08/09 02:42:00;;;;;;;;;;;15.40;99.90;;;;;;5068516;28;19917;-72
2022/08/09 02:44:30;;;;;;;;;;;15.50;99.90;;;;;;5073476;28;19978;-71
2022/08/09 02:46:56;;;;;;;;;;;15.50;99.90;;;;;;5072953;28;19917;-74
2022/08/09 02:49:22;;;;;;;;;;;15.40;99.90;;;;;;5065257;28;19920;-72
2022/08/09 02:51:50;;;;;;;;;;;15.30;99.90;;;;;;5074689;28;19912;-72
2022/08/09 02:54:17;;;;;;;;;;;15.30;99.90;;;;;;5073382;28;19917;-71
2022/08/09 02:56:44;;;;;;;;;;;15.30;99.90;;;;;;5068674;28;19920;-71
2022/08/09 02:59:09;;;;;;;;;;;15.20;99.90;;;;;;5073106;28;19960;-71
2022/08/09 03:01:36;;;;;;;;;;;15.20;99.90;;;;;;5072581;28;19955;-72
2022/08/09 03:04:03;;;;;;;;;;;15.10;99.90;;;;;;5069394;28;19913;-73
2022/08/09 03:06:29;;;;;;;;;;;15.10;99.90;;;;;;5074159;28;19995;-72
2022/08/09 03:08:55;;;;;;;;;;;15.20;99.90;;;;;;5070247;28;19957;-73
2022/08/09 03:11:22;;;;;;;;;;;15.20;99.90;;;;;;5071184;28;19916;-72
2022/08/09 03:13:48;;;;;;;;;;;15.10;99.90;;;;;;5072341;28;19921;-72
2022/08/09 03:16:17;;;;;;;;;;;15.10;99.90;;;;;;5073118;28;19997;-72
2022/08/09 03:18:44;;;;;;;;;;;15.00;99.90;;;;;;5072176;28;19923;-74
2022/08/09 03:21:10;;;;;;;;;;;14.90;99.90;;;;;;5072855;28;19917;-71
2022/08/09 03:23:36;;;;;;;;;;;14.90;99.90;;;;;;5073650;28;19942;-73
2022/08/09 03:26:02;;;;;;;;;;;14.80;99.90;;;;;;5072842;28;19920;-73
2022/08/09 03:28:27;;;;;;;;;;;14.80;99.90;;;;;;5072629;28;20287;-73
2022/08/09 03:30:54;;;;;;;;;;;14.90;99.90;;;;;;5071562;28;20305;-72
2022/08/09 03:33:20;;;;;;;;;;;14.80;99.90;;;;;;5068742;28;19917;-73
2022/08/09 03:35:46;;;;;;;;;;;14.70;99.90;;;;;;5073605;28;20235;-73
2022/08/09 03:38:12;;;;;;;;;;;14.60;99.90;;;;;;5073144;28;19925;-72
2022/08/09 03:40:38;;;;;;;;;;;14.60;99.90;;;;;;5073215;28;19923;-74
2022/08/09 03:43:03;;;;;;;;;;;14.50;99.90;;;;;;5073728;28;19917;-74
2022/08/09 03:45:29;;;;;;;;;;;14.40;99.90;;;;;;5072750;28;19926;-71
2022/08/09 03:47:54;;;;;;;;;;;14.30;99.90;;;;;;5073533;28;19934;-72
2022/08/09 03:50:21;;;;;;;;;;;14.20;99.90;;;;;;5072619;28;19916;-72
2022/08/09 03:52:47;;;;;;;;;;;14.20;99.90;;;;;;5072955;28;19912;-73
2022/08/09 03:55:13;;;;;;;;;;;14.10;99.90;;;;;;5071718;28;20354;-72
2022/08/09 03:57:38;;;;;;;;;;;14.00;99.90;;;;;;5070747;28;19924;-73
2022/08/09 04:00:04;;;;;;;;;;;14.00;99.90;;;;;;5073175;28;19984;-73
2022/08/09 04:02:30;;;;;;;;;;;14.10;99.90;;;;;;5071643;28;19970;-73
2022/08/09 04:04:57;;;;;;;;;;;14.20;99.90;;;;;;5074120;28;19916;-74
2022/08/09 04:07:23;;;;;;;;;;;14.20;99.90;;;;;;5070471;28;20295;-74
2022/08/09 04:09:48;;;;;;;;;;;14.30;99.90;;;;;;5073256;28;19970;-73
2022/08/09 04:12:14;;;;;;;;;;;14.40;99.90;;;;;;5071389;28;20226;-74
2022/08/09 04:14:40;;;;;;;;;;;14.50;99.90;;;;;;5070881;28;19924;-71
2022/08/09 04:17:06;;;;;;;;;;;14.50;99.90;;;;;;5072942;28;19970;-74
2022/08/09 04:19:32;;;;;;;;;;;14.50;99.90;;;;;;5104873;28;20364;-70
2022/08/09 04:21:58;;;;;;;;;;;14.50;99.90;;;;;;5072851;28;19912;-76
2022/08/09 04:24:26;;;;;;;;;;;14.50;99.90;;;;;;5070789;28;19920;-72
2022/08/09 04:26:52;;;;;;;;;;;14.60;99.90;;;;;;5071817;28;19912;-72
2022/08/09 04:29:18;;;;;;;;;;;14.60;99.90;;;;;;5072947;28;19937;-74
2022/08/09 04:31:44;;;;;;;;;;;14.50;99.90;;;;;;5068489;28;19916;-72
2022/08/09 04:34:09;;;;;;;;;;;14.50;99.90;;;;;;5066457;28;20070;-72
2022/08/09 04:36:35;;;;;;;;;;;14.50;99.90;;;;;;5070518;28;19916;-73
2022/08/09 04:39:01;;;;;;;;;;;14.40;99.90;;;;;;5071026;28;19928;-72
2022/08/09 04:41:27;;;;;;;;;;;14.50;99.90;;;;;;5069834;28;20214;-73
2022/08/09 04:43:53;;;;;;;;;;;14.40;99.90;;;;;;5068291;28;19928;-75
2022/08/09 04:46:19;;;;;;;;;;;14.40;99.90;;;;;;5103577;28;19923;-75
2022/08/09 04:48:44;;;;;;;;;;;14.50;99.90;;;;;;5068242;28;19917;-73
2022/08/09 04:51:10;;;;;;;;;;;14.40;99.90;;;;;;5071124;28;19920;-73
2022/08/09 04:53:36;;;;;;;;;;;14.40;99.90;;;;;;5071523;28;19920;-74
2022/08/09 04:56:01;;;;;;;;;;;14.40;99.90;;;;;;5069619;28;20304;-74
2022/08/09 04:58:27;;;;;;;;;;;14.50;99.90;;;;;;5072106;28;20010;-73
2022/08/09 05:00:54;;;;;;;;;;;14.60;99.90;;;;;;5070441;28;19920;-73
2022/08/09 05:03:20;;;;;;;;;;;14.70;99.90;;;;;;5070111;28;20003;-73
2022/08/09 05:05:47;;;;;;;;;;;14.60;99.90;;;;;;5071489;28;19922;-78
2022/08/09 05:08:12;;;;;;;;;;;14.60;99.90;;;;;;5072970;28;19918;-73
2022/08/09 05:10:38;;;;;;;;;;;14.50;99.90;;;;;;5075275;28;19917;-73
2022/08/09 05:13:03;;;;;;;;;;;14.50;99.90;;;;;;5073515;28;19932;-72
2022/08/09 05:15:29;;;;;;;;;;;14.50;99.90;;;;;;5075673;28;19924;-76
2022/08/09 05:17:54;;;;;;;;;;;14.50;99.90;;;;;;5074357;28;19927;-73
2022/08/09 05:20:20;;;;;;;;;;;14.60;99.90;;;;;;5074407;28;19966;-72
2022/08/09 05:22:47;;;;;;;;;;;14.70;99.90;;;;;;5106052;28;20222;-72
2022/08/09 05:25:13;;;;;;;;;;;14.80;99.90;;;;;;5071826;28;19912;-72
2022/08/09 05:27:39;;;;;;;;;;;14.80;99.90;;;;;;5075587;28;20311;-72
2022/08/09 05:30:04;;;;;;;;;;;14.90;99.90;;;;;;5073195;28;19921;-73
2022/08/09 05:32:30;;;;;;;;;;;15.00;99.90;;;;;;5067464;28;20597;-73
2022/08/09 05:34:55;;;;;;;;;;;15.10;99.90;;;;;;5073659;28;19931;-72
2022/08/09 05:37:21;;;;;;;;;;;15.20;99.90;;;;;;5076669;28;19944;-72
2022/08/09 05:39:46;;;;;;;;;;;15.30;99.90;;;;;;5074367;28;19913;-72
2022/08/09 05:42:13;;;;;;;;;;;15.30;99.90;;;;;;5075174;28;19919;-73
2022/08/09 05:44:38;;;;;;;;;;;15.30;99.90;;;;;;5075489;28;19924;-73
2022/08/09 05:47:04;;;;;;;;;;;15.30;99.90;;;;;;5075252;28;19917;-72
2022/08/09 05:49:29;;;;;;;;;;;15.30;99.90;;;;;;5076582;28;19923;-73
2022/08/09 05:51:55;;;;;;;;;;;15.60;99.90;;;;;;5072886;28;19923;-73
2022/08/09 05:54:20;;;;;;;;;;;15.80;99.90;;;;;;5075880;28;19917;-73
2022/08/09 05:56:46;;;;;;;;;;;15.90;99.90;;;;;;5070223;28;20009;-73
2022/08/09 05:59:11;;;;;;;;;;;16.10;99.90;;;;;;5073913;28;20322;-73
2022/08/09 06:01:37;;;;;;;;;;;16.20;99.90;;;;;;5074790;28;19916;-74
2022/08/09 06:04:03;;;;;;;;;;;16.30;99.90;;;;;;5073211;28;19920;-74
2022/08/09 06:06:28;;;;;;;;;;;16.40;99.90;;;;;;5072193;28;20003;-73
2022/08/09 06:08:54;;;;;;;;;;;16.40;99.90;;;;;;5071381;28;19916;-73
2022/08/09 06:11:19;;;;;;;;;;;16.50;99.90;;;;;;5079137;28;20046;-72
2022/08/09 06:13:45;;;;;;;;;;;16.50;99.90;;;;;;5074406;28;19916;-73
2022/08/09 06:16:11;;;;;;;;;;;16.60;99.90;;;;;;5101546;28;20320;-72
2022/08/09 06:18:36;;;;;;;;;;;16.60;99.90;;;;;;5074116;28;19917;-74
2022/08/09 06:21:02;;;;;;;;;;;16.80;99.90;;;;;;5075184;28;19913;-73
2022/08/09 06:23:29;;;;;;;;;;;16.80;99.90;;;;;;5072741;28;20357;-73
2022/08/09 06:25:55;;;;;;;;;;;16.90;99.90;;;;;;5071960;28;19916;-73
2022/08/09 06:28:20;;;;;;;;;;;17.00;99.90;;;;;;5066618;28;19961;-72
2022/08/09 06:30:46;;;;;;;;;;;17.00;99.90;;;;;;5070261;28;19919;-72
2022/08/09 06:33:11;;;;;;;;;;;17.00;99.90;;;;;;5070512;28;19912;-72
2022/08/09 06:35:37;;;;;;;;;;;17.00;99.90;;;;;;5071158;28;20273;-72
2022/08/09 06:38:03;;;;;;;;;;;17.00;99.90;;;;;;5072494;28;19925;-73
2022/08/09 06:40:28;;;;;;;;;;;17.20;99.90;;;;;;5072420;28;19966;-73
2022/08/09 06:42:54;;;;;;;;;;;17.20;99.90;;;;;;5073747;28;20006;-72
2022/08/09 06:45:20;;;;;;;;;;;17.30;99.90;;;;;;5105440;28;19971;-72
2022/08/09 06:47:47;;;;;;;;;;;17.40;99.90;;;;;;5073100;28;19917;-74
2022/08/09 06:50:13;;;;;;;;;;;17.40;99.90;;;;;;5071836;28;19957;-72
2022/08/09 06:52:44;;;;;;;;;;;17.40;99.90;;;;;;5072305;28;20003;-72
2022/08/09 06:55:19;;;;;;;;;;;17.50;99.90;;;;;;5074283;28;19920;-73
2022/08/09 06:57:45;;;;;;;;;;;17.60;99.90;;;;;;5072395;28;19973;-71
2022/08/09 07:00:11;;;;;;;;;;;17.60;99.90;;;;;;5072910;28;20038;-72
2022/08/09 07:02:37;;;;;;;;;;;17.60;99.90;;;;;;5072468;28;20074;-73
2022/08/09 07:05:03;;;;;;;;;;;17.70;99.90;;;;;;5072985;28;20304;-72
2022/08/09 07:07:29;;;;;;;;;;;17.70;99.90;;;;;;5071306;28;19921;-72
2022/08/09 07:09:55;;;;;;;;;;;17.80;99.90;;;;;;5073598;28;19939;-72
2022/08/09 07:12:20;;;;;;;;;;;17.90;99.90;;;;;;5072992;28;20030;-72
2022/08/09 07:14:46;;;;;;;;;;;18.00;99.90;;;;;;5073653;28;19912;-72
2022/08/09 07:17:13;;;;;;;;;;;18.00;99.90;;;;;;5071121;28;19921;-71
2022/08/09 07:19:38;;;;;;;;;;;18.10;99.90;;;;;;5072856;28;19966;-71
2022/08/09 07:22:04;;;;;;;;;;;18.20;99.90;;;;;;5071031;28;19955;-72
2022/08/09 07:24:30;;;;;;;;;;;18.30;99.90;;;;;;5071796;28;19936;-71
2022/08/09 07:26:55;;;;;;;;;;;18.30;99.90;;;;;;5070118;28;19923;-71
2022/08/09 07:29:21;;;;;;;;;;;18.30;99.90;;;;;;5071779;28;19913;-71
2022/08/09 07:31:47;;;;;;;;;;;18.40;99.90;;;;;;5073439;28;19912;-71
2022/08/09 07:34:12;;;;;;;;;;;18.50;99.90;;;;;;5070580;28;20299;-72
2022/08/09 07:36:39;;;;;;;;;;;18.60;99.90;;;;;;5071936;28;19916;-74
2022/08/09 07:39:05;;;;;;;;;;;18.80;99.90;;;;;;5072098;28;20007;-73
2022/08/09 07:41:31;;;;;;;;;;;19.00;99.90;;;;;;5069870;28;19920;-73
2022/08/09 07:43:57;;;;;;;;;;;19.20;99.90;;;;;;5071313;28;20356;-72
2022/08/09 07:46:22;;;;;;;;;;;19.40;99.90;;;;;;5072087;28;19913;-71
2022/08/09 07:48:48;;;;;;;;;;;19.50;99.90;;;;;;5072028;28;19917;-72
2022/08/09 07:51:13;;;;;;;;;;;19.60;99.90;;;;;;5072803;28;20169;-78
2022/08/09 07:53:39;;;;;;;;;;;19.80;99.90;;;;;;5072863;28;20247;-71
2022/08/09 07:56:04;;;;;;;;;;;19.90;99.90;;;;;;5073142;28;19917;-70
2022/08/09 07:58:30;;;;;;;;;;;20.00;99.90;;;;;;5069334;28;19920;-71
2022/08/09 08:00:55;;;;;;;;;;;20.10;99.90;;;;;;5072558;28;20302;-71
2022/08/09 08:03:21;;;;;;;;;;;20.20;99.90;;;;;;5071605;28;19920;-77
2022/08/09 08:05:47;;;;;;;;;;;20.30;99.90;;;;;;5070712;28;20008;-72
2022/08/09 08:08:12;;;;;;;;;;;20.40;99.90;;;;;;5071390;28;19912;-72
2022/08/09 08:10:38;;;;;;;;;;;20.50;99.90;;;;;;5070376;28;19916;-73
2022/08/09 08:13:04;;;;;;;;;;;20.60;99.90;;;;;;5070313;28;19916;-73
2022/08/09 08:15:30;;;;;;;;;;;20.70;99.90;;;;;;5071062;28;19955;-76
2022/08/09 08:17:55;;;;;;;;;;;20.70;99.90;;;;;;5070973;28;19928;-73
2022/08/09 08:20:22;;;;;;;;;;;20.90;99.90;;;;;;5069000;28;19913;-72
2022/08/09 08:22:48;;;;;;;;;;;21.20;99.90;;;;;;5070799;28;19913;-73
2022/08/09 08:25:13;;;;;;;;;;;21.30;99.90;;;;;;5070434;28;20188;-73
2022/08/09 08:27:39;;;;;;;;;;;21.40;99.90;;;;;;5105698;28;19912;-72
2022/08/09 08:30:05;;;;;;;;;;;21.40;99.90;;;;;;5068953;28;19981;-74
2022/08/09 08:32:30;;;;;;;;;;;21.50;99.90;;;;;;5070658;28;19927;-71
2022/08/09 08:34:56;;;;;;;;;;;21.50;99.90;;;;;;5073033;28;20365;-72
2022/08/09 08:37:22;;;;;;;;;;;21.70;99.90;;;;;;5105984;28;19939;-77
2022/08/09 08:39:47;;;;;;;;;;;22.00;99.90;;;;;;5072565;28;20311;-72
2022/08/09 08:42:13;;;;;;;;;;;21.80;99.90;;;;;;5071972;28;19928;-72
2022/08/09 08:44:40;;;;;;;;;;;21.80;99.90;;;;;;5072592;28;19916;-71
2022/08/09 08:47:06;;;;;;;;;;;21.70;99.90;;;;;;5069786;28;19916;-71
2022/08/09 08:49:32;;;;;;;;;;;21.80;99.90;;;;;;5071115;28;20033;-72
2022/08/09 08:51:58;;;;;;;;;;;21.80;99.90;;;;;;5072458;28;19913;-72
2022/08/09 08:54:24;;;;;;;;;;;21.90;99.90;;;;;;5072096;28;19966;-74
2022/08/09 08:56:49;;;;;;;;;;;22.00;99.90;;;;;;5086256;28;19919;-73
2022/08/09 08:59:15;;;;;;;;;;;21.80;99.90;;;;;;5073049;28;19927;-71
2022/08/09 09:01:42;;;;;;;;;;;21.80;99.90;;;;;;5070876;28;19912;-71
2022/08/09 09:04:08;;;;;;;;;;;22.00;99.90;;;;;;5104203;28;20449;-72
2022/08/09 09:06:35;;;;;;;;;;;22.10;99.90;;;;;;5071970;28;19921;-72
2022/08/09 09:09:02;;;;;;;;;;;22.40;99.90;;;;;;5097990;28;19913;-72
2022/08/09 09:11:28;;;;;;;;;;;22.40;99.90;;;;;;5072386;28;19970;-71
2022/08/09 09:13:54;;;;;;;;;;;22.60;99.90;;;;;;5065639;28;19913;-72
2022/08/09 09:16:20;;;;;;;;;;;22.70;99.90;;;;;;5072753;28;19924;-72
2022/08/09 09:18:46;;;;;;;;;;;22.70;99.90;;;;;;5105345;28;19922;-72
2022/08/09 09:21:12;;;;;;;;;;;22.70;99.90;;;;;;5070253;28;19923;-72
2022/08/09 09:23:42;;;;;;;;;;;22.80;99.90;;;;;;5069941;28;19916;-71
2022/08/09 09:26:07;;;;;;;;;;;22.80;99.90;;;;;;5071579;28;19974;-73
2022/08/09 09:28:34;;;;;;;;;;;22.90;99.90;;;;;;5071120;28;20612;-74
2022/08/09 09:31:00;;;;;;;;;;;22.80;99.90;;;;;;5069426;28;19947;-72
2022/08/09 09:33:30;;;;;;;;;;;22.80;99.90;;;;;;5070808;28;20235;-73
2022/08/09 09:35:57;;;;;;;;;;;22.90;99.90;;;;;;5070320;28;19966;-75
2022/08/09 09:38:37;;;;;;;;;;;22.90;99.90;;;;;;5069251;28;19943;-73
2022/08/09 09:41:03;;;;;;;;;;;23.10;99.90;;;;;;5065788;28;19913;-72
2022/08/09 09:43:28;;;;;;;;;;;22.90;99.90;;;;;;5067810;28;19999;-73
2022/08/09 09:45:54;;;;;;;;;;;22.90;99.90;;;;;;5069743;28;19932;-74
2022/08/09 09:48:20;;;;;;;;;;;22.80;99.90;;;;;;5070690;28;19931;-73
2022/08/09 09:50:46;;;;;;;;;;;22.90;99.90;;;;;;5068547;28;20354;-75
2022/08/09 09:53:16;;;;;;;;;;;23.10;99.90;;;;;;5071404;28;20223;-75
2022/08/09 09:55:53;;;;;;;;;;;23.30;99.90;;;;;;5071580;28;19928;-74
2022/08/09 09:58:18;;;;;;;;;;;23.40;99.90;;;;;;5070271;28;19928;-71
2022/08/09 10:00:48;;;;;;;;;;;23.30;99.90;;;;;;5071533;28;19989;-71
2022/08/09 10:03:14;;;;;;;;;;;23.40;99.90;;;;;;5074092;28;19913;-71
2022/08/09 10:05:58;;;;;;;;;;;23.70;99.90;;;;;;5072175;28;19920;-73
2022/08/09 10:08:24;;;;;;;;;;;23.80;99.90;;;;;;5073330;28;19990;-73
2022/08/09 10:10:50;;;;;;;;;;;23.70;99.90;;;;;;5072015;28;19916;-73
2022/08/09 10:13:16;;;;;;;;;;;23.70;99.90;;;;;;5073911;28;19916;-72
2022/08/09 10:15:49;;;;;;;;;;;23.60;99.90;;;;;;5105715;28;19928;-72
2022/08/09 10:18:15;;;;;;;;;;;23.70;99.90;;;;;;5071997;28;20319;-74
2022/08/09 10:20:41;;;;;;;;;;;23.60;99.90;;;;;;5073761;28;19942;-72
2022/08/09 10:23:17;;;;;;;;;;;23.50;99.90;;;;;;5072963;28;19991;-76
2022/08/09 10:25:43;;;;;;;;;;;23.50;99.90;;;;;;5071689;28;19913;-79
2022/08/09 10:28:09;;;;;;;;;;;23.60;99.90;;;;;;5071228;28;19995;-76
2022/08/09 10:30:35;;;;;;;;;;;23.60;99.90;;;;;;5070148;28;20008;-74
2022/08/09 10:33:00;;;;;;;;;;;23.40;99.90;;;;;;5071840;28;20067;-74
2022/08/09 10:35:26;;;;;;;;;;;23.20;99.90;;;;;;5070137;28;20001;-71
2022/08/09 10:37:52;;;;;;;;;;;23.10;99.90;;;;;;5071677;28;19917;-72
2022/08/09 10:40:18;;;;;;;;;;;23.20;99.90;;;;;;5073848;28;19923;-72
2022/08/09 10:42:43;;;;;;;;;;;23.10;99.90;;;;;;5070350;28;19927;-72
2022/08/09 10:45:10;;;;;;;;;;;23.20;99.90;;;;;;5071901;28;19912;-72
2022/08/09 10:47:38;;;;;;;;;;;23.20;99.90;;;;;;5068104;28;19917;-77
2022/08/09 10:50:22;;;;;;;;;;;23.30;99.90;;;;;;5084212;28;20222;-73
2022/08/09 10:53:06;;;;;;;;;;;23.40;99.90;;;;;;5060552;28;19995;-75
2022/08/09 10:55:33;;;;;;;;;;;23.20;99.90;;;;;;5086103;28;19966;-74
2022/08/09 10:57:58;;;;;;;;;;;23.10;99.90;;;;;;5104359;28;19916;-72
2022/08/09 11:00:27;;;;;;;;;;;23.10;99.90;;;;;;5074356;28;19916;-74
2022/08/09 11:02:53;;;;;;;;;;;23.10;99.90;;;;;;5073620;28;19943;-74
2022/08/09 11:05:20;;;;;;;;;;;23.20;99.90;;;;;;5064074;28;20450;-74
2022/08/09 11:07:46;;;;;;;;;;;23.20;99.90;;;;;;5069217;28;19970;-74
2022/08/09 11:10:11;;;;;;;;;;;23.10;99.90;;;;;;5073826;28;19916;-74
2022/08/09 11:12:37;;;;;;;;;;;23.40;99.90;;;;;;5071502;28;19969;-73
2022/08/09 11:15:17;;;;;;;;;;;23.30;99.90;;;;;;5074033;28;19916;-73
2022/08/09 11:17:44;;;;;;;;;;;23.40;99.90;;;;;;5073738;28;19916;-73
2022/08/09 11:20:10;;;;;;;;;;;23.60;99.90;;;;;;5074315;28;19916;-72
2022/08/09 11:22:39;;;;;;;;;;;23.70;99.90;;;;;;5074055;28;19916;-73
2022/08/09 11:25:04;;;;;;;;;;;23.70;99.90;;;;;;5069852;28;19923;-73
2022/08/09 11:27:35;;;;;;;;;;;23.70;99.90;;;;;;5106996;28;20006;-72
2022/08/09 11:30:01;;;;;;;;;;;23.60;99.90;;;;;;5072333;28;19917;-73
2022/08/09 11:32:40;;;;;;;;;;;23.60;99.90;;;;;;5072977;28;19934;-75
2022/08/09 11:35:09;;;;;;;;;;;23.70;99.90;;;;;;5068324;28;19921;-72
2022/08/09 11:37:36;;;;;;;;;;;23.80;99.90;;;;;;5073893;28;19924;-73
2022/08/09 11:40:03;;;;;;;;;;;23.70;99.90;;;;;;5070178;28;19921;-76
2022/08/09 11:42:45;;;;;;;;;;;23.60;99.90;;;;;;5074055;28;19920;-75
2022/08/09 11:45:23;;;;;;;;;;;23.70;99.90;;;;;;5071859;28;19917;-76
2022/08/09 11:47:52;;;;;;;;;;;23.70;99.90;;;;;;5072843;28;20330;-75
2022/08/09 11:50:18;;;;;;;;;;;23.80;99.90;;;;;;5071014;28;20311;-76
2022/08/09 11:52:59;;;;;;;;;;;23.80;99.90;;;;;;5068709;28;20483;-76
2022/08/09 11:55:36;;;;;;;;;;;23.80;99.90;;;;;;5069358;28;19961;-75
2022/08/09 11:58:14;;;;;;;;;;;23.70;99.90;;;;;;5103984;28;20295;-80
2022/08/09 12:01:06;;;;;;;;;;;23.80;99.90;;;;;;5068377;28;19913;-73
2022/08/09 12:03:31;;;;;;;;;;;23.80;99.90;;;;;;5070013;28;19966;-74
2022/08/09 12:05:58;;;;;;;;;;;23.80;99.90;;;;;;5071313;28;19912;-74
2022/08/09 12:08:24;;;;;;;;;;;23.80;99.90;;;;;;5066111;28;19916;-72
2022/08/09 12:10:54;;;;;;;;;;;23.60;99.90;;;;;;5070184;28;19912;-75
2022/08/09 12:13:33;;;;;;;;;;;23.50;99.90;;;;;;5070513;28;19912;-74
2022/08/09 12:16:09;;;;;;;;;;;23.40;99.90;;;;;;5068935;28;20015;-74
2022/08/09 12:18:35;;;;;;;;;;;23.60;99.90;;;;;;5065335;28;20226;-76
2022/08/09 12:21:03;;;;;;;;;;;23.50;99.90;;;;;;5071085;28;19935;-73
2022/08/09 12:23:30;;;;;;;;;;;23.50;99.90;;;;;;5073747;28;19920;-74
2022/08/09 12:25:57;;;;;;;;;;;23.60;99.90;;;;;;5069770;28;20231;-71
2022/08/09 12:28:23;;;;;;;;;;;23.60;99.90;;;;;;5104978;28;19913;-75
2022/08/09 12:30:49;;;;;;;;;;;23.40;99.90;;;;;;5060785;28;19939;-74
2022/08/09 12:33:15;;;;;;;;;;;23.50;99.90;;;;;;5060420;28;19921;-72
2022/08/09 12:35:41;;;;;;;;;;;23.50;99.90;;;;;;5069066;28;19917;-74
2022/08/09 12:38:20;;;;;;;;;;;23.60;99.90;;;;;;5071794;28;19924;-72
2022/08/09 12:40:46;;;;;;;;;;;23.80;99.90;;;;;;5071599;28;20307;-75
2022/08/09 12:43:13;;;;;;;;;;;23.90;99.90;;;;;;5071529;28;19966;-73
2022/08/09 12:45:39;;;;;;;;;;;23.90;99.90;;;;;;5099754;28;20258;-73
2022/08/09 12:48:06;;;;;;;;;;;23.90;99.90;;;;;;5072465;28;19942;-73
2022/08/09 12:50:33;;;;;;;;;;;23.80;99.90;;;;;;5069606;28;19913;-71
2022/08/09 12:52:58;;;;;;;;;;;23.70;99.90;;;;;;5070601;28;19913;-73
2022/08/09 12:55:30;;;;;;;;;;;23.90;99.90;;;;;;5097698;28;19939;-76
2022/08/09 12:57:56;;;;;;;;;;;23.90;99.90;;;;;;5064416;28;20025;-72
2022/08/09 13:00:23;;;;;;;;;;;23.90;99.90;;;;;;5063810;28;19979;-72
2022/08/09 13:02:50;;;;;;;;;;;23.90;99.90;;;;;;5061561;28;19995;-72
2022/08/09 13:05:17;;;;;;;;;;;23.90;99.90;;;;;;5062146;28;20243;-72
2022/08/09 13:08:02;;;;;;;;;;;23.60;99.90;;;;;;5059576;28;19985;-73
2022/08/09 13:10:28;;;;;;;;;;;23.70;99.90;;;;;;5062976;28;19921;-73
2022/08/09 13:12:54;;;;;;;;;;;24.20;99.90;;;;;;5060526;28;19912;-74
2022/08/09 13:15:19;;;;;;;;;;;24.10;99.90;;;;;;5068505;28;19921;-72
2022/08/09 13:17:45;;;;;;;;;;;24.00;99.90;;;;;;5056314;28;19955;-72
2022/08/09 13:20:10;;;;;;;;;;;23.80;99.90;;;;;;5060792;28;19917;-74
2022/08/09 13:22:46;;;;;;;;;;;23.90;99.90;;;;;;5070194;28;19917;-74
2022/08/09 13:25:11;;;;;;;;;;;23.90;99.90;;;;;;5065067;28;19912;-72
2022/08/09 13:27:38;;;;;;;;;;;23.90;99.90;;;;;;5104425;28;20209;-72
2022/08/09 13:30:05;;;;;;;;;;;23.60;99.90;;;;;;5074323;28;19912;-74
2022/08/09 13:32:51;;;;;;;;;;;23.70;99.90;;;;;;5073891;28;19959;-73
2022/08/09 13:35:17;;;;;;;;;;;24.00;99.90;;;;;;5073847;28;19999;-73
2022/08/09 13:37:43;;;;;;;;;;;24.20;99.90;;;;;;5075539;28;19920;-74
2022/08/09 13:40:10;;;;;;;;;;;24.10;99.90;;;;;;5071241;28;20027;-76
2022/08/09 13:42:35;;;;;;;;;;;23.90;99.90;;;;;;5075206;28;19920;-72
2022/08/09 13:45:03;;;;;;;;;;;23.70;99.90;;;;;;5075388;28;19923;-76
2022/08/09 13:47:31;;;;;;;;;;;23.50;99.90;;;;;;5072918;28;19912;-74
2022/08/09 13:50:00;;;;;;;;;;;23.40;99.90;;;;;;5073674;28;19916;-74
2022/08/09 13:52:26;;;;;;;;;;;23.40;99.90;;;;;;5073124;28;19917;-71
2022/08/09 13:54:52;;;;;;;;;;;23.40;99.90;;;;;;5074105;28;20519;-75
2022/08/09 13:57:18;;;;;;;;;;;23.30;99.90;;;;;;5071770;28;19913;-73
2022/08/09 13:59:43;;;;;;;;;;;23.10;99.90;;;;;;5073393;28;19923;-71
2022/08/09 14:02:09;;;;;;;;;;;23.20;99.90;;;;;;5072508;28;19963;-72
2022/08/09 14:04:34;;;;;;;;;;;23.20;99.90;;;;;;5073126;28;19928;-72
2022/08/09 14:07:01;;;;;;;;;;;23.40;99.90;;;;;;5070690;28;19928;-71
2022/08/09 14:09:27;;;;;;;;;;;23.60;99.90;;;;;;5072443;28;19966;-71
2022/08/09 14:11:53;;;;;;;;;;;23.60;99.90;;;;;;5073991;28;19919;-72
2022/08/09 14:14:19;;;;;;;;;;;23.40;99.90;;;;;;5072441;28;19913;-74
2022/08/09 14:16:45;;;;;;;;;;;23.30;99.90;;;;;;5073630;28;19944;-71